Time;durP1;ratioP1;P1;durP2;ratioP2;P2;SDS_P1;SDS_P2;PMS_P1;PMS_P2;Temp;Humidity;BMP_temperature;BMP_pressure;BME280_temperature;BME280_humidity;BME280_pressure;Samples;Min_cycle;Max_cycle;Signal;HPM_P1;HPM_P2
2022/10/25 00:00:29;;;;;;;0.68;0.68;;;19.40;61.90;;;;;;5087136;28;45249;-69
2022/10/25 00:02:56;;;;;;;0.98;0.88;;;19.40;61.90;;;;;;5087304;28;45364;-69
2022/10/25 00:05:23;;;;;;;0.80;0.70;;;19.40;61.90;;;;;;5086817;28;46482;-69
2022/10/25 00:07:51;;;;;;;0.80;0.80;;;19.40;61.90;;;;;;5086694;28;45384;-69
2022/10/25 00:10:18;;;;;;;0.73;0.73;;;19.30;61.90;;;;;;5086816;28;45190;-68
2022/10/25 00:12:45;;;;;;;0.70;0.70;;;19.30;61.80;;;;;;5087123;28;45178;-70
2022/10/25 00:15:13;;;;;;;1.20;0.80;;;19.30;61.80;;;;;;5086718;28;45245;-70
2022/10/25 00:17:40;;;;;;;0.90;0.88;;;19.30;61.80;;;;;;5086855;28;45237;-69
2022/10/25 00:20:07;;;;;;;0.65;0.65;;;19.30;61.80;;;;;;5087064;28;45323;-70
2022/10/25 00:22:34;;;;;;;1.35;0.70;;;19.30;61.70;;;;;;5087523;28;45394;-70
2022/10/25 00:25:02;;;;;;;0.93;0.93;;;19.30;61.80;;;;;;5086668;28;45199;-69
2022/10/25 00:27:29;;;;;;;0.80;0.80;;;19.30;61.80;;;;;;5086493;28;45303;-68
2022/10/25 00:29:56;;;;;;;0.70;0.70;;;19.30;61.80;;;;;;5086048;27;45307;-68
2022/10/25 00:32:23;;;;;;;0.60;0.60;;;19.30;61.80;;;;;;5086681;28;45237;-68
2022/10/25 00:34:50;;;;;;;0.95;0.90;;;19.30;61.80;;;;;;5086172;28;46633;-68
2022/10/25 00:37:16;;;;;;;1.05;0.90;;;19.30;61.70;;;;;;5086276;28;45261;-68
2022/10/25 00:39:43;;;;;;;0.70;0.70;;;19.20;61.70;;;;;;5086483;28;45344;-69
2022/10/25 00:42:13;;;;;;;0.80;0.70;;;19.20;61.70;;;;;;5086626;28;45299;-68
2022/10/25 00:44:49;;;;;;;2.35;0.90;;;19.20;61.60;;;;;;5085871;28;46681;-69
2022/10/25 00:47:23;;;;;;;0.70;0.70;;;19.20;61.70;;;;;;5086138;28;45163;-69
2022/10/25 00:49:52;;;;;;;1.48;0.90;;;19.20;61.70;;;;;;5086260;28;45283;-68
2022/10/25 00:52:19;;;;;;;1.48;0.73;;;19.20;61.70;;;;;;5086252;28;45353;-69
2022/10/25 00:54:48;;;;;;;1.55;1.00;;;19.20;62.00;;;;;;5085826;28;45450;-69
2022/10/25 00:57:17;;;;;;;0.77;0.77;;;19.20;61.70;;;;;;5086127;28;45188;-69
2022/10/25 00:59:44;;;;;;;0.93;0.93;;;19.20;62.40;;;;;;5086123;28;45342;-69
2022/10/25 01:02:11;;;;;;;1.55;0.93;;;19.20;62.40;;;;;;5086343;28;45331;-69
2022/10/25 01:04:38;;;;;;;0.73;0.73;;;19.10;61.60;;;;;;5085867;28;45318;-69
2022/10/25 01:07:04;;;;;;;0.70;0.70;;;19.10;61.70;;;;;;5085872;28;45230;-67
2022/10/25 01:09:32;;;;;;;0.98;0.88;;;19.10;61.60;;;;;;5085974;28;45205;-68
2022/10/25 01:11:59;;;;;;;0.80;0.80;;;19.10;61.60;;;;;;5086191;28;45221;-68
2022/10/25 01:14:28;;;;;;;1.60;1.05;;;19.10;61.70;;;;;;5085546;28;46428;-70
2022/10/25 01:16:58;;;;;;;1.50;0.75;;;19.10;61.70;;;;;;5086115;28;45274;-70
2022/10/25 01:19:36;;;;;;;1.08;0.70;;;19.10;61.70;;;;;;5086090;28;45323;-70
2022/10/25 01:22:03;;;;;;;0.85;0.85;;;19.10;61.60;;;;;;5086274;28;45459;-69
2022/10/25 01:25:03;;;;;;;0.95;0.80;;;19.10;61.60;;;;;;5085886;28;46718;-68
2022/10/25 01:27:47;;;;;;;0.80;0.80;;;19.00;61.50;;;;;;5085699;28;45293;-69
2022/10/25 01:30:18;;;;;;;1.02;0.70;;;19.00;61.70;;;;;;5085897;28;45249;-69
2022/10/25 01:32:51;;;;;;;1.17;0.90;;;19.00;61.60;;;;;;5085774;28;45129;-69
2022/10/25 01:35:20;;;;;;;0.90;0.90;;;19.00;61.60;;;;;;5085319;28;46469;-69
2022/10/25 01:38:05;;;;;;;0.70;0.70;;;19.00;61.60;;;;;;5085395;28;45241;-69
2022/10/25 01:40:34;;;;;;;1.35;0.82;;;19.00;61.60;;;;;;5085540;27;45223;-68
2022/10/25 01:43:04;;;;;;;0.80;0.80;;;19.00;61.60;;;;;;5089241;28;45313;-69
2022/10/25 01:45:34;;;;;;;0.60;0.60;;;18.90;61.50;;;;;;5089360;28;45246;-69
2022/10/25 01:48:04;;;;;;;0.85;0.80;;;18.90;62.30;;;;;;5089382;28;45244;-70
2022/10/25 01:50:32;;;;;;;0.60;0.60;;;18.90;61.50;;;;;;5089062;28;45335;-68
2022/10/25 01:52:59;;;;;;;1.10;0.90;;;18.90;61.60;;;;;;5089299;28;45389;-68
2022/10/25 01:55:28;;;;;;;0.82;0.82;;;18.90;61.50;;;;;;5088716;28;46392;-69
2022/10/25 01:57:59;;;;;;;0.80;0.80;;;18.90;61.50;;;;;;5088802;28;45212;-69
2022/10/25 02:00:26;;;;;;;0.70;0.70;;;18.90;61.50;;;;;;5088931;28;45330;-68
2022/10/25 02:03:09;;;;;;;0.88;0.80;;;18.90;61.40;;;;;;5089100;28;45291;-69
2022/10/25 02:05:41;;;;;;;0.82;0.82;;;18.90;61.50;;;;;;5088544;28;46470;-69
2022/10/25 02:08:09;;;;;;;0.65;0.65;;;18.90;61.50;;;;;;5088739;28;45260;-69
2022/10/25 02:10:38;;;;;;;0.80;0.65;;;18.90;61.60;;;;;;5088811;28;45272;-70
2022/10/25 02:13:09;;;;;;;2.13;0.80;;;18.80;61.60;;;;;;5089291;28;45396;-70
2022/10/25 02:15:39;;;;;;;0.68;0.68;;;18.90;61.60;;;;;;5088640;28;46417;-70
2022/10/25 02:18:07;;;;;;;0.70;0.70;;;18.80;61.60;;;;;;5088875;28;45226;-70
2022/10/25 02:20:35;;;;;;;0.77;0.77;;;18.80;61.60;;;;;;5089052;28;45313;-70
2022/10/25 02:23:03;;;;;;;0.82;0.82;;;18.80;61.60;;;;;;5089140;28;45377;-70
2022/10/25 02:25:31;;;;;;;1.00;0.90;;;18.80;61.60;;;;;;5088700;28;46651;-70
2022/10/25 02:27:58;;;;;;;0.93;0.70;;;18.80;61.50;;;;;;5088249;28;45190;-71
2022/10/25 02:30:25;;;;;;;0.88;0.80;;;18.80;61.60;;;;;;5088805;28;45522;-71
2022/10/25 02:32:52;;;;;;;0.75;0.75;;;18.80;61.50;;;;;;5088877;28;45417;-70
2022/10/25 02:35:20;;;;;;;0.70;0.70;;;18.80;61.50;;;;;;5088212;28;45470;-70
2022/10/25 02:37:47;;;;;;;0.90;0.90;;;18.80;61.50;;;;;;5088504;28;45205;-71
2022/10/25 02:40:13;;;;;;;1.85;0.90;;;18.70;61.50;;;;;;5088589;28;45385;-71
2022/10/25 02:42:40;;;;;;;0.85;0.75;;;18.70;61.60;;;;;;5088936;28;45322;-70
2022/10/25 02:45:08;;;;;;;0.73;0.73;;;18.70;61.60;;;;;;5087880;28;45488;-70
2022/10/25 02:47:35;;;;;;;1.63;0.80;;;18.70;61.50;;;;;;5088383;28;45202;-70
2022/10/25 02:50:02;;;;;;;1.60;0.75;;;18.70;61.60;;;;;;5088529;28;45197;-71
2022/10/25 02:52:31;;;;;;;0.80;0.80;;;18.70;61.50;;;;;;5088124;27;45524;-70
2022/10/25 02:54:57;;;;;;;0.95;0.70;;;18.70;61.60;;;;;;5088166;28;46919;-70
2022/10/25 02:57:24;;;;;;;1.13;0.90;;;18.70;61.60;;;;;;5088308;28;45307;-70
2022/10/25 02:59:51;;;;;;;0.70;0.70;;;18.70;61.50;;;;;;5088169;28;45261;-69
2022/10/25 03:02:18;;;;;;;1.75;0.70;;;18.70;61.60;;;;;;5088192;28;45203;-68
2022/10/25 03:04:45;;;;;;;2.15;0.90;;;18.70;61.60;;;;;;5087790;28;45973;-69
2022/10/25 03:07:11;;;;;;;1.50;0.80;;;18.60;61.50;;;;;;5087773;28;45420;-69
2022/10/25 03:09:40;;;;;;;0.68;0.68;;;18.70;61.60;;;;;;5087920;28;45320;-69
2022/10/25 03:12:07;;;;;;;1.10;0.80;;;18.60;61.50;;;;;;5088022;28;45182;-69
2022/10/25 03:14:33;;;;;;;0.65;0.65;;;18.70;61.60;;;;;;5087922;28;45265;-68
2022/10/25 03:17:00;;;;;;;0.93;0.73;;;18.60;61.50;;;;;;5087456;28;45318;-68
2022/10/25 03:19:27;;;;;;;1.08;0.90;;;18.60;61.50;;;;;;5087798;28;45384;-69
2022/10/25 03:21:54;;;;;;;0.70;0.70;;;18.60;62.20;;;;;;5087912;28;45342;-69
2022/10/25 03:24:21;;;;;;;0.65;0.65;;;18.60;61.50;;;;;;5087536;28;45230;-69
2022/10/25 03:26:49;;;;;;;0.82;0.70;;;18.60;61.50;;;;;;5087445;28;45213;-69
2022/10/25 03:29:16;;;;;;;2.05;0.90;;;18.60;61.60;;;;;;5087654;28;45269;-69
2022/10/25 03:31:43;;;;;;;0.70;0.70;;;18.60;62.30;;;;;;5087620;28;45451;-69
2022/10/25 03:34:10;;;;;;;0.80;0.80;;;18.60;61.50;;;;;;5087309;28;45372;-69
2022/10/25 03:36:37;;;;;;;1.30;0.80;;;18.60;61.50;;;;;;5087302;28;45195;-69
2022/10/25 03:39:04;;;;;;;0.65;0.65;;;18.60;61.50;;;;;;5087190;28;45208;-69
2022/10/25 03:41:30;;;;;;;0.80;0.80;;;18.60;61.50;;;;;;5087609;28;45444;-69
2022/10/25 03:43:59;;;;;;;0.80;0.80;;;18.60;61.50;;;;;;5086915;28;47403;-69
2022/10/25 03:46:26;;;;;;;0.80;0.70;;;18.60;61.60;;;;;;5087498;28;45701;-69
2022/10/25 03:48:52;;;;;;;0.82;0.75;;;18.50;61.60;;;;;;5087212;28;45197;-69
2022/10/25 03:51:19;;;;;;;0.60;0.60;;;18.50;61.50;;;;;;5087506;28;45441;-69
2022/10/25 03:53:46;;;;;;;0.65;0.65;;;18.50;62.30;;;;;;5086895;28;46412;-69
2022/10/25 03:56:13;;;;;;;0.60;0.60;;;18.50;61.60;;;;;;5086762;28;45313;-69
2022/10/25 03:58:40;;;;;;;0.68;0.65;;;18.50;61.60;;;;;;5087198;28;45339;-69
2022/10/25 04:01:09;;;;;;;0.65;0.65;;;18.50;62.40;;;;;;5087291;28;45234;-69
2022/10/25 04:03:36;;;;;;;0.95;0.85;;;18.50;61.70;;;;;;5086137;27;48734;-70
2022/10/25 04:06:03;;;;;;;1.30;0.80;;;18.50;61.70;;;;;;5087028;28;45324;-69
2022/10/25 04:08:30;;;;;;;0.98;0.70;;;18.50;61.70;;;;;;5087266;28;45287;-71
2022/10/25 04:10:57;;;;;;;1.15;0.80;;;18.50;61.70;;;;;;5087328;28;45186;-70
2022/10/25 04:13:24;;;;;;;0.80;0.80;;;18.50;61.70;;;;;;5086941;28;45305;-71
2022/10/25 04:15:50;;;;;;;1.27;0.68;;;18.50;61.70;;;;;;5086721;28;45194;-69
2022/10/25 04:18:19;;;;;;;0.77;0.77;;;18.50;61.70;;;;;;5086810;28;45433;-69
2022/10/25 04:20:49;;;;;;;1.00;0.80;;;18.50;61.70;;;;;;5086905;28;45323;-70
2022/10/25 04:23:15;;;;;;;0.82;0.70;;;18.50;61.70;;;;;;5086630;28;45516;-70
2022/10/25 04:25:43;;;;;;;0.60;0.60;;;18.50;61.60;;;;;;5086792;28;45358;-70
2022/10/25 04:28:10;;;;;;;0.60;0.60;;;18.50;62.40;;;;;;5086929;28;45446;-70
2022/10/25 04:30:37;;;;;;;0.70;0.70;;;18.50;61.70;;;;;;5087117;28;45268;-71
2022/10/25 04:33:04;;;;;;;0.70;0.70;;;18.50;61.70;;;;;;5086565;28;47318;-70
2022/10/25 04:35:32;;;;;;;0.55;0.55;;;18.40;61.60;;;;;;5086816;28;45182;-71
2022/10/25 04:37:59;;;;;;;1.30;0.63;;;18.40;61.60;;;;;;5068912;28;45360;-70
2022/10/25 04:40:26;;;;;;;0.63;0.60;;;18.40;61.60;;;;;;5086654;28;45288;-70
2022/10/25 04:42:52;;;;;;;0.70;0.68;;;18.40;61.60;;;;;;5086548;28;46814;-71
2022/10/25 04:45:19;;;;;;;0.70;0.70;;;18.40;61.60;;;;;;5086665;28;45285;-71
2022/10/25 04:47:46;;;;;;;0.68;0.68;;;18.40;61.70;;;;;;5086805;28;45257;-71
2022/10/25 04:50:13;;;;;;;0.60;0.60;;;18.40;61.60;;;;;;5086990;28;45386;-71
2022/10/25 04:52:41;;;;;;;1.15;0.70;;;18.40;61.60;;;;;;5066090;28;45529;-70
2022/10/25 04:55:08;;;;;;;0.70;0.70;;;18.40;61.60;;;;;;5066153;28;45208;-70
2022/10/25 04:57:35;;;;;;;0.70;0.70;;;18.40;61.60;;;;;;5066003;28;45198;-71
2022/10/25 05:00:02;;;;;;;0.68;0.68;;;18.40;61.60;;;;;;5066434;28;45291;-70
2022/10/25 05:02:29;;;;;;;0.70;0.70;;;18.40;61.70;;;;;;5065888;28;46678;-70
2022/10/25 05:04:55;;;;;;;0.60;0.60;;;18.40;61.60;;;;;;5065945;28;45368;-70
2022/10/25 05:07:22;;;;;;;0.52;0.52;;;18.40;61.60;;;;;;5066083;28;45313;-70
2022/10/25 05:09:53;;;;;;;0.82;0.73;;;18.30;61.60;;;;;;5066163;28;45193;-69
2022/10/25 05:12:19;;;;;;;0.52;0.50;;;18.30;61.70;;;;;;5065768;28;46700;-70
2022/10/25 05:14:46;;;;;;;0.50;0.50;;;18.30;61.60;;;;;;5065721;28;45258;-70
2022/10/25 05:17:13;;;;;;;0.98;0.68;;;18.30;62.40;;;;;;5065584;28;45206;-70
2022/10/25 05:19:40;;;;;;;0.70;0.70;;;18.30;61.70;;;;;;5066130;28;45262;-70
2022/10/25 05:22:07;;;;;;;1.15;0.70;;;18.30;61.70;;;;;;5065253;28;45487;-69
2022/10/25 05:24:34;;;;;;;0.85;0.57;;;18.30;61.70;;;;;;5065306;28;45364;-69
2022/10/25 05:27:03;;;;;;;0.95;0.52;;;18.30;61.70;;;;;;5065618;28;45292;-68
2022/10/25 05:29:30;;;;;;;0.75;0.68;;;18.30;62.40;;;;;;5065593;28;45226;-69
2022/10/25 05:31:57;;;;;;;0.90;0.73;;;18.30;61.60;;;;;;5065257;28;46310;-70
2022/10/25 05:34:24;;;;;;;0.60;0.60;;;18.30;61.60;;;;;;5065221;28;45392;-70
2022/10/25 05:36:51;;;;;;;0.45;0.45;;;18.30;61.70;;;;;;5076220;28;45399;-70
2022/10/25 05:39:17;;;;;;;0.60;0.60;;;18.30;61.70;;;;;;5083541;28;45267;-70
2022/10/25 05:41:44;;;;;;;0.57;0.57;;;18.30;61.70;;;;;;5085652;28;45800;-71
2022/10/25 05:44:13;;;;;;;0.70;0.70;;;18.20;61.60;;;;;;5085177;28;45190;-70
2022/10/25 05:46:40;;;;;;;0.80;0.80;;;18.30;61.70;;;;;;5085861;28;45295;-70
2022/10/25 05:49:07;;;;;;;0.70;0.70;;;18.20;61.70;;;;;;5086169;28;45369;-70
2022/10/25 05:51:34;;;;;;;0.57;0.57;;;18.30;61.70;;;;;;5085324;28;45403;-70
2022/10/25 05:54:02;;;;;;;0.70;0.60;;;18.20;61.70;;;;;;5085678;28;45256;-70
2022/10/25 05:56:29;;;;;;;0.57;0.57;;;18.20;61.70;;;;;;5085618;28;45380;-70
2022/10/25 05:58:56;;;;;;;0.65;0.65;;;18.20;61.70;;;;;;5085845;28;45461;-70
2022/10/25 06:01:24;;;;;;;0.90;0.90;;;18.20;61.70;;;;;;5084837;28;45469;-70
2022/10/25 06:03:52;;;;;;;0.68;0.68;;;18.20;61.70;;;;;;5085554;28;45272;-70
2022/10/25 06:06:19;;;;;;;0.70;0.60;;;18.20;61.70;;;;;;5085568;28;45362;-70
2022/10/25 06:08:46;;;;;;;0.80;0.50;;;18.20;61.70;;;;;;5085261;28;45350;-70
2022/10/25 06:11:14;;;;;;;0.60;0.60;;;18.20;61.70;;;;;;5085285;28;45308;-69
2022/10/25 06:13:41;;;;;;;1.00;0.70;;;18.20;61.70;;;;;;5084940;28;45206;-69
2022/10/25 06:16:08;;;;;;;0.90;0.90;;;18.20;61.70;;;;;;5085182;28;45127;-69
2022/10/25 06:18:37;;;;;;;1.27;0.90;;;18.20;61.80;;;;;;5085435;28;45304;-70
2022/10/25 06:21:05;;;;;;;0.88;0.88;;;18.10;61.70;;;;;;5085079;28;45565;-70
2022/10/25 06:23:33;;;;;;;0.60;0.60;;;18.20;61.70;;;;;;5085091;28;45241;-71
2022/10/25 06:26:01;;;;;;;0.70;0.70;;;18.20;62.50;;;;;;5085250;28;45315;-68
2022/10/25 06:28:28;;;;;;;0.80;0.80;;;18.20;61.80;;;;;;5087891;27;45309;-68
2022/10/25 06:30:54;;;;;;;0.85;0.70;;;18.10;61.70;;;;;;5088343;28;46391;-68
2022/10/25 06:33:21;;;;;;;0.65;0.65;;;18.10;61.70;;;;;;5088253;28;45283;-68
2022/10/25 06:35:54;;;;;;;0.60;0.60;;;18.10;61.80;;;;;;5088412;28;45336;-68
2022/10/25 06:38:21;;;;;;;1.20;0.80;;;18.10;61.70;;;;;;5088444;28;45276;-68
2022/10/25 06:40:48;;;;;;;0.77;0.77;;;18.10;61.80;;;;;;5088273;28;47282;-68
2022/10/25 06:43:15;;;;;;;0.63;0.60;;;18.10;61.80;;;;;;5088101;28;45277;-69
2022/10/25 06:45:42;;;;;;;0.70;0.70;;;18.10;61.80;;;;;;5088246;28;45383;-68
2022/10/25 06:48:09;;;;;;;0.73;0.73;;;18.10;61.80;;;;;;5088398;28;45462;-68
2022/10/25 06:50:35;;;;;;;0.70;0.70;;;18.10;62.50;;;;;;5087831;28;47353;-68
2022/10/25 06:53:04;;;;;;;1.10;1.00;;;18.10;61.80;;;;;;5087997;28;45259;-69
2022/10/25 06:55:30;;;;;;;0.93;0.90;;;18.10;61.80;;;;;;5088025;28;45275;-67
2022/10/25 06:57:58;;;;;;;4.93;1.45;;;18.10;61.80;;;;;;5088109;28;45277;-68
2022/10/25 07:00:25;;;;;;;2.10;1.48;;;18.10;61.90;;;;;;5087694;28;46485;-68
2022/10/25 07:02:55;;;;;;;5.55;1.52;;;18.10;61.90;;;;;;5087783;28;45209;-67
2022/10/25 07:05:22;;;;;;;4.82;1.75;;;18.10;62.00;;;;;;5087038;28;45713;-67
2022/10/25 07:07:48;;;;;;;2.70;1.73;;;18.10;63.00;;;;;;5087847;28;45294;-68
2022/10/25 07:10:17;;;;;;;3.95;1.77;;;18.10;62.10;;;;;;5087394;28;45303;-67
2022/10/25 07:12:44;;;;;;;3.63;1.70;;;18.10;62.10;;;;;;5087824;28;45480;-67
2022/10/25 07:15:11;;;;;;;2.45;1.33;;;18.10;62.20;;;;;;5087748;28;45295;-67
2022/10/25 07:17:37;;;;;;;5.22;1.60;;;18.10;62.10;;;;;;5083925;27;45462;-66
2022/10/25 07:20:05;;;;;;;3.60;1.60;;;18.20;62.00;;;;;;5087445;27;46651;-66
2022/10/25 07:22:33;;;;;;;2.85;1.70;;;18.20;62.20;;;;;;5087426;27;45310;-68
2022/10/25 07:24:59;;;;;;;5.15;1.92;;;18.10;63.20;;;;;;5087326;28;45339;-66
2022/10/25 07:27:28;;;;;;;3.00;2.05;;;18.10;62.60;;;;;;5087650;28;45286;-67
2022/10/25 07:29:54;;;;;;;6.60;2.65;;;18.10;64.00;;;;;;5086995;28;45293;-67
2022/10/25 07:32:21;;;;;;;5.07;2.03;;;18.10;63.00;;;;;;5087367;28;45257;-68
2022/10/25 07:34:48;;;;;;;7.28;2.10;;;18.10;63.50;;;;;;5087473;28;45181;-66
2022/10/25 07:37:15;;;;;;;7.00;2.35;;;18.10;63.60;;;;;;5073174;28;45421;-68
2022/10/25 07:39:42;;;;;;;7.25;2.20;;;18.10;63.30;;;;;;5081888;28;46344;-66
2022/10/25 07:42:09;;;;;;;6.82;3.55;;;18.20;63.20;;;;;;5087157;28;45337;-68
2022/10/25 07:44:37;;;;;;;7.47;4.38;;;18.20;63.20;;;;;;5087226;28;45280;-66
2022/10/25 07:47:04;;;;;;;10.50;6.03;;;18.20;63.00;;;;;;5087443;28;45412;-65
2022/10/25 07:49:31;;;;;;;9.35;4.07;;;18.30;63.00;;;;;;5087016;28;46371;-66
2022/10/25 07:51:58;;;;;;;5.57;3.92;;;18.30;63.40;;;;;;5086975;28;45317;-68
2022/10/25 07:54:25;;;;;;;9.07;5.68;;;18.30;62.70;;;;;;5087153;28;45201;-66
2022/10/25 07:56:51;;;;;;;5.13;4.00;;;18.30;62.60;;;;;;5087169;28;45130;-65
2022/10/25 07:59:19;;;;;;;6.38;3.95;;;18.40;62.40;;;;;;5086813;28;46409;-65
2022/10/25 08:01:47;;;;;;;6.78;3.55;;;18.40;62.20;;;;;;5086873;28;45280;-67
2022/10/25 08:04:14;;;;;;;5.93;3.75;;;18.50;62.20;;;;;;5087144;28;45311;-66
2022/10/25 08:06:41;;;;;;;9.52;6.85;;;18.50;62.40;;;;;;5087146;28;45158;-66
2022/10/25 08:09:08;;;;;;;13.45;9.85;;;18.50;62.90;;;;;;5086711;28;46393;-65
2022/10/25 08:11:35;;;;;;;12.43;7.78;;;18.60;62.60;;;;;;5086696;28;45467;-65
2022/10/25 08:14:01;;;;;;;25.55;14.65;;;18.60;63.40;;;;;;5086760;28;45408;-66
2022/10/25 08:16:28;;;;;;;14.23;8.93;;;18.70;62.80;;;;;;5086773;28;45306;-66
2022/10/25 08:18:57;;;;;;;14.10;6.88;;;18.80;63.00;;;;;;5086419;28;47446;-68
2022/10/25 08:21:23;;;;;;;8.82;5.40;;;18.90;62.40;;;;;;5086490;28;45257;-64
2022/10/25 08:23:50;;;;;;;11.77;5.60;;;18.90;62.20;;;;;;5086832;28;45304;-66
2022/10/25 08:26:17;;;;;;;15.23;10.73;;;18.90;62.00;;;;;;5085859;28;45538;-66
2022/10/25 08:28:44;;;;;;;29.70;16.05;;;19.00;61.90;;;;;;5085732;28;45283;-65
2022/10/25 08:31:11;;;;;;;6.90;3.33;;;19.10;62.10;;;;;;5085961;28;45251;-66
2022/10/25 08:33:38;;;;;;;20.50;16.98;;;19.20;61.80;;;;;;5085999;28;45205;-65
2022/10/25 08:36:07;;;;;;;20.77;17.10;;;19.20;61.70;;;;;;5086368;28;45375;-67
2022/10/25 08:38:34;;;;;;;9.90;5.22;;;19.30;61.70;;;;;;5085986;28;45364;-65
2022/10/25 08:41:05;;;;;;;13.32;7.72;;;19.30;61.60;;;;;;5086446;28;45385;-65
2022/10/25 08:43:45;;;;;;;36.67;32.72;;;19.40;61.40;;;;;;5085930;28;45284;-66
2022/10/25 08:46:14;;;;;;;29.95;19.27;;;19.50;61.40;;;;;;5082791;28;45303;-67
2022/10/25 08:48:42;;;;;;;25.48;22.95;;;19.60;61.10;;;;;;5085955;28;45303;-67
2022/10/25 08:51:14;;;;;;;19.30;16.88;;;19.70;60.80;;;;;;5085703;27;45333;-68
2022/10/25 08:53:44;;;;;;;22.58;18.90;;;19.70;60.60;;;;;;5086176;28;45339;-66
2022/10/25 08:56:12;;;;;;;7.30;5.60;;;19.80;60.40;;;;;;5086187;28;45186;-68
2022/10/25 08:58:49;;;;;;;18.63;16.63;;;19.90;59.90;;;;;;5085701;28;45281;-65
2022/10/25 09:01:18;;;;;;;20.85;18.65;;;19.90;60.60;;;;;;5085564;28;45377;-65
2022/10/25 09:03:45;;;;;;;18.23;16.33;;;20.00;60.80;;;;;;5086088;28;45189;-66
2022/10/25 09:06:19;;;;;;;16.77;14.98;;;20.00;60.90;;;;;;5086171;28;45267;-66
2022/10/25 09:09:07;;;;;;;20.88;15.63;;;20.00;60.90;;;;;;5085638;28;46387;-66
2022/10/25 09:11:46;;;;;;;8.45;7.65;;;20.10;61.10;;;;;;5085725;28;45214;-65
2022/10/25 09:14:16;;;;;;;6.85;5.43;;;20.20;61.20;;;;;;5086005;28;45327;-68
2022/10/25 09:16:48;;;;;;;3.35;2.85;;;20.20;59.60;;;;;;5085950;28;45538;-67
2022/10/25 09:19:16;;;;;;;6.45;3.70;;;20.20;60.20;;;;;;5085512;28;46463;-66
2022/10/25 09:21:48;;;;;;;8.35;4.57;;;20.10;60.40;;;;;;5085958;28;45237;-70
2022/10/25 09:24:20;;;;;;;8.05;4.35;;;20.10;59.70;;;;;;5085453;28;45339;-70
2022/10/25 09:26:53;;;;;;;7.97;4.25;;;20.20;59.90;;;;;;5085828;28;45369;-66
2022/10/25 09:29:23;;;;;;;4.47;3.47;;;20.20;59.60;;;;;;5085427;28;46356;-67
2022/10/25 09:31:51;;;;;;;6.10;4.03;;;20.20;59.00;;;;;;5085579;28;45293;-68
2022/10/25 09:34:19;;;;;;;6.85;4.30;;;20.30;59.20;;;;;;5085562;28;45205;-69
2022/10/25 09:36:48;;;;;;;7.55;3.00;;;20.30;59.20;;;;;;5085553;28;45304;-69
2022/10/25 09:39:19;;;;;;;6.28;3.38;;;20.30;59.10;;;;;;5084897;28;45462;-66
2022/10/25 09:41:47;;;;;;;4.00;2.03;;;20.30;58.90;;;;;;5085103;28;45320;-65
2022/10/25 09:44:17;;;;;;;2.45;1.75;;;20.40;58.60;;;;;;5085105;28;45370;-69
2022/10/25 09:46:47;;;;;;;4.35;2.45;;;20.50;58.50;;;;;;5085457;28;45416;-69
2022/10/25 09:49:19;;;;;;;2.42;1.60;;;20.50;58.60;;;;;;5084434;28;48753;-72
2022/10/25 09:51:50;;;;;;;3.55;1.80;;;20.60;58.20;;;;;;5084583;28;45407;-69
2022/10/25 09:54:19;;;;;;;8.85;2.53;;;20.60;59.10;;;;;;5084907;28;45234;-70
2022/10/25 09:56:46;;;;;;;7.15;2.72;;;20.70;58.80;;;;;;5085354;28;45411;-66
2022/10/25 09:59:13;;;;;;;5.60;2.08;;;20.70;58.60;;;;;;5084048;28;45680;-68
2022/10/25 10:01:40;;;;;;;5.45;2.17;;;20.70;59.40;;;;;;5085332;27;45259;-66
2022/10/25 10:04:23;;;;;;;3.33;2.08;;;20.60;59.50;;;;;;5088548;28;45264;-66
2022/10/25 10:06:52;;;;;;;3.65;1.85;;;20.70;59.10;;;;;;5089143;28;45443;-68
2022/10/25 10:09:18;;;;;;;7.15;3.03;;;20.70;58.80;;;;;;5088288;28;45262;-67
2022/10/25 10:11:46;;;;;;;13.68;4.53;;;20.80;59.20;;;;;;5087427;28;45480;-67
2022/10/25 10:14:16;;;;;;;5.93;2.53;;;20.90;58.40;;;;;;5068397;28;45377;-66
2022/10/25 10:16:44;;;;;;;6.88;3.63;;;20.90;58.70;;;;;;5075972;28;45135;-68
2022/10/25 10:19:17;;;;;;;8.57;2.92;;;20.90;58.30;;;;;;5088253;28;46397;-67
2022/10/25 10:21:44;;;;;;;5.53;3.00;;;21.00;58.20;;;;;;5087783;28;45264;-68
2022/10/25 10:24:16;;;;;;;9.70;7.53;;;21.00;57.70;;;;;;5088573;28;45379;-67
2022/10/25 10:26:45;;;;;;;10.52;8.75;;;21.00;58.30;;;;;;5088901;28;45143;-68
2022/10/25 10:29:13;;;;;;;10.43;5.05;;;21.10;58.70;;;;;;5097929;27;45385;-67
2022/10/25 10:31:40;;;;;;;5.30;3.90;;;21.20;58.30;;;;;;5108770;27;45391;-67
2022/10/25 10:34:16;;;;;;;5.95;4.32;;;21.20;58.30;;;;;;5108944;27;45207;-67
2022/10/25 10:36:44;;;;;;;7.63;4.40;;;21.20;57.70;;;;;;5099232;27;45412;-67
2022/10/25 10:39:21;;;;;;;6.72;4.20;;;21.20;57.70;;;;;;5087955;28;45466;-66
2022/10/25 10:42:02;;;;;;;6.07;3.97;;;21.20;57.80;;;;;;5088257;28;45301;-66
2022/10/25 10:44:29;;;;;;;4.75;4.00;;;21.10;57.70;;;;;;5087364;28;45239;-66
2022/10/25 10:46:56;;;;;;;5.47;3.90;;;21.10;57.80;;;;;;5087019;28;45339;-66
2022/10/25 10:49:26;;;;;;;5.05;3.70;;;21.10;57.90;;;;;;5086942;28;45340;-66
2022/10/25 10:51:53;;;;;;;5.65;4.00;;;21.10;57.90;;;;;;5084572;28;45218;-65
2022/10/25 10:54:26;;;;;;;7.57;4.25;;;21.10;57.90;;;;;;5085265;28;45259;-66
2022/10/25 10:56:57;;;;;;;5.22;3.63;;;21.10;57.90;;;;;;5087100;28;45192;-65
2022/10/25 10:59:35;;;;;;;5.80;3.90;;;21.10;57.90;;;;;;5086543;28;45481;-65
2022/10/25 11:02:24;;;;;;;5.18;3.55;;;21.20;58.00;;;;;;5086465;28;45227;-66
2022/10/25 11:04:52;;;;;;;6.00;3.45;;;21.20;58.00;;;;;;5086833;28;45335;-66
2022/10/25 11:07:29;;;;;;;5.13;3.63;;;21.20;58.00;;;;;;5086768;28;45407;-66
2022/10/25 11:10:22;;;;;;;6.15;3.40;;;21.20;58.00;;;;;;5086309;28;45538;-65
2022/10/25 11:13:07;;;;;;;3.90;3.00;;;21.20;58.00;;;;;;5086050;28;45403;-66
2022/10/25 11:15:56;;;;;;;5.35;3.20;;;21.20;57.90;;;;;;5085839;28;45313;-66
2022/10/25 11:18:26;;;;;;;6.15;3.25;;;21.30;57.90;;;;;;5086500;28;45396;-66
2022/10/25 11:20:55;;;;;;;4.43;2.97;;;21.30;57.90;;;;;;5086088;28;45292;-66
2022/10/25 11:23:23;;;;;;;4.97;3.03;;;21.30;57.90;;;;;;5086291;28;45131;-67
2022/10/25 11:25:52;;;;;;;6.97;3.38;;;21.30;57.90;;;;;;5086388;28;45353;-66
2022/10/25 11:28:32;;;;;;;4.70;3.03;;;21.30;57.90;;;;;;5085844;28;45400;-66
2022/10/25 11:31:01;;;;;;;4.40;3.00;;;21.30;57.90;;;;;;5086125;28;45227;-66
2022/10/25 11:33:33;;;;;;;4.88;2.60;;;21.40;58.20;;;;;;5086032;28;45308;-66
2022/10/25 11:36:11;;;;;;;3.65;2.60;;;21.40;57.90;;;;;;5085568;28;45361;-65
2022/10/25 11:38:59;;;;;;;4.25;3.05;;;21.40;58.20;;;;;;5073387;28;45293;-66
2022/10/25 11:41:36;;;;;;;4.03;2.70;;;21.40;57.80;;;;;;5085804;28;45292;-67
2022/10/25 11:44:21;;;;;;;6.13;2.60;;;21.40;57.60;;;;;;5045008;28;1166276;-65
2022/10/25 11:46:50;;;;;;;3.80;2.70;;;21.50;57.80;;;;;;5087161;28;45233;-68
2022/10/25 11:49:26;;;;;;;3.42;2.72;;;21.50;57.70;;;;;;5087195;28;45393;-66
2022/10/25 11:52:02;;;;;;;4.72;2.50;;;21.50;57.60;;;;;;5086036;28;46629;-66
2022/10/25 11:54:32;;;;;;;3.28;2.40;;;21.60;57.60;;;;;;5086846;28;45291;-66
2022/10/25 11:57:07;;;;;;;2.35;2.10;;;21.60;57.60;;;;;;5085895;28;45280;-66
2022/10/25 11:59:38;;;;;;;3.53;2.55;;;21.70;57.50;;;;;;5075733;28;45351;-66
2022/10/25 12:02:34;;;;;;;3.60;2.33;;;21.80;57.50;;;;;;5078513;28;45453;-66
2022/10/25 12:05:21;;;;;;;2.13;1.73;;;21.80;57.20;;;;;;5066369;28;45235;-66
2022/10/25 12:07:51;;;;;;;3.58;2.20;;;21.90;56.90;;;;;;5076838;28;45455;-65
2022/10/25 12:10:21;;;;;;;2.65;1.70;;;22.00;57.00;;;;;;5086258;28;45481;-65
2022/10/25 12:12:51;;;;;;;4.47;2.15;;;22.00;56.90;;;;;;5086652;28;47262;-65
2022/10/25 12:15:20;;;;;;;5.00;2.08;;;22.00;57.60;;;;;;5086609;28;45477;-65
2022/10/25 12:17:47;;;;;;;2.80;1.80;;;22.00;56.90;;;;;;5086602;28;45209;-65
2022/10/25 12:20:20;;;;;;;3.20;1.88;;;22.10;57.00;;;;;;5085616;28;45496;-64
2022/10/25 12:22:47;;;;;;;3.65;1.98;;;22.10;56.90;;;;;;5082964;28;46766;-64
2022/10/25 12:25:15;;;;;;;5.38;2.00;;;22.20;56.90;;;;;;5084995;27;45242;-69
2022/10/25 12:27:42;;;;;;;5.78;2.00;;;22.30;56.70;;;;;;5085203;28;45315;-67
2022/10/25 12:30:15;;;;;;;6.45;2.42;;;22.30;56.70;;;;;;5085509;28;45414;-66
2022/10/25 12:32:42;;;;;;;9.30;3.97;;;22.40;55.20;;;;;;5066178;28;45534;-66
2022/10/25 12:35:17;;;;;;;8.90;5.90;;;22.50;54.60;;;;;;5065284;28;45311;-69
2022/10/25 12:37:46;;;;;;;11.07;6.35;;;22.60;54.60;;;;;;5083615;28;45321;-67
2022/10/25 12:40:15;;;;;;;6.38;5.75;;;22.70;54.00;;;;;;5066093;28;45200;-64
2022/10/25 12:42:43;;;;;;;8.43;5.88;;;22.90;52.40;;;;;;5065726;28;47266;-64
2022/10/25 12:45:33;;;;;;;4.85;3.53;;;22.90;51.50;;;;;;5078348;28;45404;-64
2022/10/25 12:48:07;;;;;;;7.50;3.22;;;22.90;52.40;;;;;;5085565;28;45420;-64
2022/10/25 12:50:58;;;;;;;6.43;5.32;;;23.00;53.40;;;;;;5085808;28;45193;-66
2022/10/25 12:54:02;;;;;;;8.25;3.90;;;23.10;52.20;;;;;;5086118;28;46586;-67
2022/10/25 12:56:36;;;;;;;4.97;3.75;;;23.10;53.20;;;;;;5086020;28;45384;-68